Etusivu
METAR-TAF:

METAR-TAF

Lentoasemat :

Eureka, Nevada, Yhdysvallat

Leveyspiiri: 39-36-05N, Pituuspiiri: 116-00-20W, korkeus merenpinnasta: 1812 m

Tämänhetkinen sää

Tämä raportti tehtiin 38 minuuttia sitten, kello 12.53 UTC
Tuuli 8 kn lännestä/luoteesta
Lämpötila 3°C
Kosteus 60%
Ilmanpaine 1007 hPa

METAR: KP68 211253Z AUTO 29008KT 03/M04 A2975 RMK AO1 SLP042 T00331039

Aika: 06:31 (13:31 UTC)


TAF: puuttuu

Säähavainnot ja -ennusteet yli 4000 lentoasemalta (METAR- ja TAF-raportit).

Käytössä olevat sääasemat on merkitty karttaan keltaisilla ja punaisilla pisteillä.

Aseta hiiri pisteen päälle nähdäksesi sääaseman nimen.

Klikkaa sitten nähdäksesi säähavainnot ja -ennusteet.

Kartan vaihtaminen: klikkaa mustalla rastilla varustettuja vihreitä pisteitä, niin voit zoomata sisään; viivalla varustettua vihreää pistettä, niin voit zoomata ulos tai vihreitä nuolia, niin pääset viereisille kartoille.


METAR-TAF: